Terminal Aerodrome Forecast
Issued by NWS

Home | Current Version | Previous Version | Text Only | Print | Product List | Glossary On
Versions: 1 2 3 4 5 6 7 8 9 10 11 12 13
000
FTUS44 KTSA 011138
TAFRVS
TAF
KRVS 011138Z 0112/0212 00000KT P6SM SCT250
     FM011400 18006KT P6SM SCT120
     FM020100 00000KT P6SM SCT120=

USA.gov is the U.S. government's official web portal to all federal, state and local government web resources and services.